Airfield :
LOGIN :

Register | Disclaimer

   EN    FR    IT 

 










Legend :    VFR   Marginal VFR   IFR   Intensive IFR   Very Intensive IFR
Visi :
Ceiling :
>= 8 km
>= 3000ft
5 to 8 km
1000 to 3000 ft
1500m to 5 km
500 to 1000 ft
800 to 1500m
200 to 500 ft
< 800m
< 200 ft
Symbols :   Thunderstorms  Fog  Heavy snow  Heavy precipitations  Wind > 20 kt
SIGMETs :     Misc.  Thunderstorms  Icing  Turbulence  Mountain Waves  Volcanic Ashes







- Airport Elevation : 62 ft
- IATA code : TAN


GMTT - Tanger Ibn Batouta

CURRENT METAR :
  • 262100Z 04002KT 6000 NSC 18/13 Q1019 NOSIG

EXPIRED METARs :
  • 262030Z 03002KT 6000 NSC 19/15 Q1019 NOSIG
  • 262000Z VRB02KT 6000 NSC 20/17 Q1019 NOSIG
  • 261930Z 35004KT 6000 NSC 21/18 Q1018 NOSIG
  • 261900Z VRB02KT 6000 NSC 21/18 Q1018 NOSIG
  • 261830Z 33004KT 6000 NSC 22/18 Q1018 NOSIG

TAF TAF GMTT
Valid from the 26 at 18:00 until the 28 at 00:00 UTC


261700Z 2618/2724 28006KT 6000 FEW016 BKN200
TEMPO 2623/2705 VRB02KT 3000 BR FEW010 SCT016
TEMPO 2706/2711 4000 -RA BKN016 SCT100
BECMG 2712/2714 06016KT
No reported NOTAMs for that airfield.



MET'MAP, your aeronautical weather chart ! - Copyright ORBIFLY December 2007 - Disclaimer

ORBIFLY MET'MAP TEAM :

Programming & Development : Alexandra Zaïnal
Concept & Development : Baudouin d'Aumeries
Co-Development & Prog : Marc-Olivier Méhu
Technical & hardware support : Manuel Goepfert

Contact : metmap@orbifly.com




SOURCES & CREDITS :

   NOAA